Terminal Aerodrome Forecast
Issued by NWS

Home | Current Version | Previous Version | Text Only | Print | Product List | Glossary On
Versions: 1 2 3 4 5 6 7 8 9 10 11 12 13 14 15 16 17
018
FTUS43 KFGF 101733
TAFBJI
TAF
KBJI 101733Z 1018/1118 00000KT P6SM SKC
      TEMPO 1019/1021 BKN012
     FM110400 11005KT P6SM OVC015
     FM110800 10007KT 4SM -SN OVC025
     FM111000 09007KT 2SM -SN OVC008
     FM111400 08006KT 1 1/2SM -SN OVC008=

USA.gov is the U.S. government's official web portal to all federal, state and local government web resources and services.